< < Back
Terminal Aerodrome Forecast


Current Version              Previous Versions:   1  2  3  4  5  6  7  8  9  

Terminal Aerodrome Forecast

871
FTUS42 KMLB 261138
TAFDAB
TAF
KDAB 261138Z 2612/2712 23008KT 5SM BR VCSH SCT015 BKN035
      TEMPO 2612/2614 -SHRA BKN020
     FM261400 26013G20KT P6SM VCSH SCT020 BKN035 BKN250
     FM270000 25011KT P6SM VCSH SCT020 BKN030 BKN250
     FM270500 23007KT P6SM SCT008 BKN012=



Latest METAR

478
SAUS80 KWBC 261300
MTRDAB
METAR KDAB 261253Z 25012KT 7SM FEW016 FEW035 BKN150 BKN250 26/23 A2978
RMK AO2 SLP084 TCU DSNT N W T02560233


USA.gov is the U.S. government's official web portal to all federal, state and local government web resources and services.